Aviation Digital Data Service (ADDS)

Output produced by METARs form (1838 UTC 18 June 2019)
found at http://www.aviationweather.gov/metar/data/
 
KALB 181751Z 05003KT 10SM OVC021 19/17 A2992 RMK AO2 RAE10 SLP131 P0000 60007 T01940167 10194 20172 58016
KALB 181815Z 1818/1918 VRB03KT P6SM SCT025 BKN090 
     TEMPO 1818/1820 OVC025 
     FM190800 18003KT 2SM BR BKN008 
     FM191300 18005KT P6SM VCSH SCT008 BKN050
       
KGVQ 181756Z AUTO VRB03KT 10SM FEW029 SCT044 BKN070 23/17 A2993 RMK AO2 SLP154 T02280167 10228 20150 58008
KBGM 181835Z 00000KT 10SM BKN023 BKN029 BKN034 21/16 A2993 RMK AO2 T02110156
KBGM 181730Z 1818/1918 00000KT P6SM OVC015 
     FM181900 00000KT P6SM BKN035 
     FM190600 00000KT 5SM BR BKN015 
     TEMPO 1908/1912 1SM BR BKN005 
     FM191600 VRB03KT P6SM BKN020
       
KBUF 181754Z 01005KT 10SM FEW039 FEW200 FEW250 25/15 A2991 RMK AO2 SLP124 T02500150 10256 20167 58008
KBUF 181739Z 1818/1918 VRB04KT P6SM SCT040 BKN250 
     FM182000 26006KT P6SM BKN040 
     FM182300 02006KT P6SM SCT150 
     FM191300 23006KT P6SM SCT120
       
KN03 181815Z AUTO 00000KT 10SM SCT018 SCT022 OVC028 20/17 A2994 RMK AO2
KDSV 181754Z AUTO 00000KT 10SM SCT070 24/18 A2991 RMK AO2 SLP133 60000 T02390183 10239 20167 58012
KDKK 181753Z AUTO 34004KT 10SM CLR 22/14 A2993 RMK AO2 SLP134 T02170144 10217 20172 58004
KHTO 181815Z AUTO 11006KT 7SM -RA OVC003 18/17 A2993 RMK AO2 P0002 T01790173
KELM 181753Z 01003KT 10SM FEW017 OVC065 24/19 A2991 RMK AO2 SLP122 60018 T02390189 10239 20178 58006
KELM 181730Z 1818/1918 VRB03KT P6SM SCT015 BKN035 
     FM190500 00000KT 5SM BR BKN018 
     TEMPO 1908/1912 1SM BR BKN005 
     FM191600 VRB03KT P6SM BKN022
       
KFRG 181832Z 15007KT 5SM -RA BR OVC004 20/19 A2990 RMK AO2 P0008 T02000194
KFZY 181754Z AUTO 12004KT 10SM BKN070 26/16 A2990 RMK AO2 SLP123 T02560156 10261 20172 57013 $
KGFL 181753Z AUTO 19004KT 10SM SCT025 22/14 A2992 RMK AO2 SLP131 T02170139 10222 20167 56011
KGFL 181720Z 1818/1918 VRB03KT P6SM SCT025 BKN090 
     FM190700 00000KT 2SM BR BKN007 
     FM191400 18003KT P6SM VCSH SCT007 BKN050
       
KISP 181756Z 14008KT 1 1/2SM -RA BR OVC003 21/21 A2991 RMK AO2 SFC VIS 2 RAB10 SLP126 P0016 60021 T02060206 10217 20200 58014
KISP 181724Z 1818/1918 14007KT 3SM -SHRA BR OVC004 
     TEMPO 1818/1822 1SM SHRA BKN010 
     FM182200 18006KT 3SM BR VCSH BKN004 
     FM190000 VRB03KT 3SM BR VCSH BKN004 
     FM190100 05005KT 1SM BR VCSH OVC004 
     FM191200 14004KT 1SM BR VCSH OVC004 
     FM191500 18005KT 6SM HZ VCSH BKN015 OVC025
       
KITH 181756Z 13003KT 10SM BKN020 OVC029 22/18 A2994 RMK AO2 SLP133 60004 T02220183 10222 20161 58002
KITH 181730Z 1818/1918 VRB04KT P6SM OVC025 
     FM181900 VRB03KT P6SM BKN050 
     FM190600 00000KT 5SM BR BKN015 
     TEMPO 1909/1913 1SM BR OVC008 
     FM191500 VRB03KT P6SM BKN028
       
KJHW 181821Z AUTO 34007G14KT 10SM BKN027 BKN035 OVC055 22/18 A2995 RMK AO2
KJHW 181739Z 1818/1918 23005KT P6SM BKN040 
     FM182100 31006KT P6SM SCT200 
     FM190600 VRB03KT 3SM BR BKN080 
     FM191000 19004KT 1SM BR BKN003 
     FM191600 00000KT P6SM BKN040
       
KNY0 181758Z AUTO 17003KT 10SM CLR 20/19 A2993 RMK AO2
KMSS 181753Z AUTO 02006KT 10SM CLR 27/09 A2991 RMK AO2 SLP128 T02670089 10272 20161 58015
KMSS 181720Z 1818/1918 VRB04KT P6SM FEW200 
     FM182200 00000KT P6SM FEW150 
     FM190200 00000KT P6SM SCT150 
     FM190700 00000KT P6SM FEW150 
     FM191500 25006KT P6SM SCT050
       
KMTP 181754Z AUTO 12004KT 18/17 A2996 RMK AO1 SLP146 P0003 60006 T01780172 10206 20178 58006
KMGJ 181828Z AUTO 00000KT 10SM BKN007 OVC014 20/19 A2990 RMK AO2 RAE19 CIG 006V012 P0001 T02000194
KMSV 181808Z AUTO 09003KT 10SM FEW013 OVC060 21/18 A2994 RMK AO2
KSWF 181745Z 16006KT 2 1/2SM -RA BR OVC003 20/20 A2992
KSWF 181724Z 1818/1924 VRB05KT 2SM -SHRA BR BKN004 
     FM182200 VRB05KT 2SM BR VCSH BKN005 
     FM190100 VRB02KT 1SM BR VCSH BKN005 
     FM190400 VRB03KT 1SM BR OVC005 
     FM191200 14004KT 1SM BR VCSH OVC004 
     FM191500 18005KT 6SM HZ VCSH BKN015 AMD NOT SKED
       
KJFK 181821Z 11004KT 2SM R04R/5000VP6000FT +RA BR SCT008 BKN026CB OVC055 21/21 A2990 RMK AO2 SFC VIS 2 1/2 RAB00 CB OHD MOV E P0005 T02110211
KJFK 181724Z 1818/1924 13009KT 6SM -SHRA BR VCTS BKN010CB OVC040 
     TEMPO 1818/1822 3SM SHRA BKN010 
     FM182200 18006KT 3SM -SHRA BKN025 
     FM190000 VRB03KT 2SM BR VCSH BKN015 OVC025 
     FM190100 05005KT 2SM BR VCSH OVC004 
     FM191200 06004KT 1SM BR VCSH OVC004 
     FM191500 18005KT 6SM HZ VCSH BKN015 OVC025
       
KLGA 181813Z 16008KT 3SM RA SCT009 SCT070 OVC095 23/21 A2987 RMK AO2 P0005 T02330206
KLGA 181724Z 1818/1924 18008KT 4SM -SHRA VCTS BKN012CB OVC040 
     FM182200 05008KT 3SM BR BKN025 
     FM190000 VRB03KT 5SM BR VCSH BKN015 OVC025 
     FM190100 05005KT 2SM BR VCSH OVC004 
     FM191200 03004KT 1SM BR VCSH OVC004 
     FM191500 18005KT 6SM BR VCSH BKN015 OVC025
       
KIAG 181753Z 36009KT 10SM CLR 23/14 A2992 RMK AO2 SLP128 T02330144 10239 20167 58006
KIAG 181739Z 1818/1918 31010KT P6SM FEW040 SCT150 
     FM190000 22004KT P6SM SCT120 
     FM191400 24005KT P6SM BKN100
       
KOGS 181815Z AUTO 33004G10KT 10SM CLR 26/10 A2987 RMK AO2
KOLE 181815Z AUTO 00000KT 10SM SCT021 SCT040 BKN070 21/17 A2995 RMK AO2
KPEO 181833Z AUTO 00000KT 10SM BKN015 BKN022 22/18 A2992 RMK AO2 T02220178
KPBG 181753Z AUTO 13009KT 10SM CLR 24/08 A2990 RMK AO2 SLP126 T02390083 10244 20161 58018
KPBG 181720Z 1818/1918 12007KT P6SM FEW060 FEW200 
     FM182200 00000KT P6SM FEW150 
     FM190400 00000KT P6SM SCT150 
     FM190900 16004KT P6SM FEW150 
     FM191400 15008KT P6SM SCT050
       
KPTD 181815Z AUTO 28005KT 10SM CLR 26/11 A2989 RMK AO2
KPOU 181800Z 20003KT 8SM -RA BKN009 BKN023 OVC080 21/19 A2990 RMK AO2 RAB00 P0000 T02110194
KPOU 181812Z 1818/1918 VRB03KT 4SM -SHRA BR BKN025 OVC050 
     TEMPO 1818/1820 BKN009 
     FM182100 VRB03KT P6SM SCT025 BKN070 
     FM190600 00000KT 2SM BR BKN006 OVC015 
     FM191400 16003KT P6SM VCSH SCT006 OVC015
       
KROC 181754Z 02009KT 10SM FEW040 SCT080 BKN200 24/14 A2992 RMK AO2 SLP130 T02440144 10256 20167 56008
KROC 181739Z 1818/1918 03008KT P6SM BKN040 
     FM182200 03006KT P6SM SCT040 
     FM190000 03006KT P6SM SCT200 
     FM190600 VRB03KT P6SM SCT150
       
KRME 181830Z 18005KT 10SM FEW001 BKN070 25/16 A2991 RMK AO2 T02500156 $
KRME 181730Z 1818/1918 12005KT P6SM BKN100 
     FM190800 00000KT P6SM BKN025 
     FM191500 VRB03KT P6SM BKN040
       
KSLK 181751Z AUTO 32003KT 10SM CLR 23/06 A2992 RMK AO2 SLP128 T02330056 10239 20150 58015
KSLK 181720Z 1818/1918 VRB06KT P6SM SCT060 
     FM182300 VRB03KT P6SM FEW060 FEW150 
     FM190200 00000KT P6SM SCT150 
     FM190700 00000KT P6SM FEW150 
     FM191500 23005KT P6SM VCSH SCT040
       
KSCH 181655Z 00000KT 5SM -BR BKN039 18/16 A2994
KHWV 181756Z AUTO 14005KT 4SM -RA BR OVC004 20/19 A2993 RMK AO2 RAB25 SLP132 P0014 60019 T02000189 10200 20194 55009
K6B9 181835Z AUTO VRB06KT 10SM BKN028 BKN038 OVC070 23/17 A2992 RMK AO2
KSYR 181754Z 00000KT 10SM FEW040 SCT070 BKN200 BKN250 25/16 A2990 RMK AO2 SLP118 T02500156 10261 20167 56013
KSYR 181730Z 1818/1918 VRB03KT P6SM SCT250 
     FM191000 00000KT P6SM BKN035 
     FM191400 VRB03KT P6SM BKN050
       
KART 181756Z AUTO 26010KT 10SM CLR 26/13 A2989 RMK AO2 SLP118 T02560128 10256 20183 56010
KART 181739Z 1818/1918 26008KT P6SM BKN090 
     FM182300 25005KT P6SM BKN200
       
KELZ 181756Z AUTO 00000KT 10SM FEW049 SCT060 22/18 A2996 RMK AO2 SLP135 60001 T02220178 10228 20167 58006
KFOK 181804Z 12006KT 5SM -RA BR OVC003 18/18 A2994 RMK AO2 P0001 T01830178
KHPN 181828Z 15007KT 1/4SM R16/5500VP6000FT FG VV001 21/20 A2989 RMK AO2 RAE10 P0001 T02060200
KHPN 181724Z 1818/1918 12004KT 1 1/2SM -SHRA BR OVC004 
     FM182200 18006KT 3SM -SHRA BKN005 
     FM190000 VRB03KT 3SM BR VCSH BKN003 OVC010 
     FM190100 05005KT 2SM BR VCSH OVC004 
     FM191200 14004KT 2SM BR VCSH OVC004 
     FM191500 18005KT 6SM HZ VCSH BKN015 OVC025 AMD NOT SKED
       
KSDC 181835Z AUTO 01003KT 10SM BKN070 OVC080 22/10 A2992 RMK AO2